Time;durP1;ratioP1;P1;durP2;ratioP2;P2;SDS_P1;SDS_P2;PMS_P1;PMS_P2;Temp;Humidity;BMP_temperature;BMP_pressure;BME280_temperature;BME280_humidity;BME280_pressure;Samples;Min_cycle;Max_cycle;Signal;HPM_P1;HPM_P2
2023/11/02 00:02:26;;;;;;;;;;;;;;;17.50;49.85;99243.13;5071827;28;19962;-77
2023/11/02 00:04:52;;;;;;;;;;;;;;;17.52;49.84;99240.22;5072286;28;19928;-76
2023/11/02 00:07:18;;;;;;;;;;;;;;;17.53;49.65;99234.66;5071962;28;19912;-76
2023/11/02 00:09:43;;;;;;;;;;;;;;;17.56;49.63;99231.53;5071939;28;20370;-76
2023/11/02 00:12:17;;;;;;;;;;;;;;;17.54;49.70;99222.94;5071928;28;19913;-76
2023/11/02 00:14:45;;;;;;;;;;;;;;;17.51;49.75;99228.75;5072400;28;19948;-76
2023/11/02 00:17:29;;;;;;;;;;;;;;;17.48;49.83;99226.53;5072158;28;19916;-76
2023/11/02 00:19:55;;;;;;;;;;;;;;;17.47;49.54;99215.03;5071836;28;20004;-77
2023/11/02 00:22:21;;;;;;;;;;;;;;;17.46;49.82;99215.28;5071873;28;19912;-77
2023/11/02 00:24:48;;;;;;;;;;;;;;;17.47;49.76;99203.56;5053763;28;19916;-76
2023/11/02 00:27:14;;;;;;;;;;;;;;;17.47;49.67;99192.88;5071896;28;19916;-76
2023/11/02 00:29:39;;;;;;;;;;;;;;;17.51;49.53;99196.72;5071704;28;20332;-77
2023/11/02 00:32:04;;;;;;;;;;;;;;;17.51;49.67;99187.88;5071617;28;19912;-76
2023/11/02 00:34:30;;;;;;;;;;;;;;;17.53;49.81;99185.81;5071835;28;19913;-76
2023/11/02 00:36:55;;;;;;;;;;;;;;;17.53;49.62;99189.28;5071665;28;19936;-76
2023/11/02 00:39:21;;;;;;;;;;;;;;;17.52;49.76;99195.66;5071638;28;19912;-76
2023/11/02 00:41:47;;;;;;;;;;;;;;;17.50;49.80;99178.25;5071437;28;19913;-76
2023/11/02 00:44:13;;;;;;;;;;;;;;;17.48;49.96;99187.31;5071516;28;19912;-77
2023/11/02 00:46:38;;;;;;;;;;;;;;;17.45;50.21;99190.44;5071530;28;19917;-76
2023/11/02 00:49:03;;;;;;;;;;;;;;;17.45;50.29;99192.28;5053520;28;20007;-77
2023/11/02 00:51:30;;;;;;;;;;;;;;;17.45;50.12;99173.63;5053538;28;19919;-77
2023/11/02 00:53:56;;;;;;;;;;;;;;;17.45;50.30;99192.28;5072994;28;19912;-77
2023/11/02 00:56:22;;;;;;;;;;;;;;;17.42;50.02;99198.91;5075455;28;19912;-77
2023/11/02 00:58:51;;;;;;;;;;;;;;;17.33;49.86;99196.81;5057722;28;19991;-77
2023/11/02 01:01:17;;;;;;;;;;;;;;;17.31;50.16;99194.38;5058287;28;20394;-77
2023/11/02 01:03:49;;;;;;;;;;;;;;;17.33;50.06;99188.81;5075649;28;19920;-78
2023/11/02 01:06:16;;;;;;;;;;;;;;;17.34;50.14;99201.09;5075235;28;19939;-76
2023/11/02 01:08:42;;;;;;;;;;;;;;;17.35;50.18;99200.06;5074926;28;20385;-76
2023/11/02 01:11:10;;;;;;;;;;;;;;;17.36;50.09;99204.34;5075095;28;19913;-77
2023/11/02 01:13:36;;;;;;;;;;;;;;;17.37;50.14;99205.97;5057128;28;19919;-76
2023/11/02 01:16:09;;;;;;;;;;;;;;;17.36;50.11;99201.69;5074788;28;19912;-76
2023/11/02 01:18:35;;;;;;;;;;;;;;;17.34;50.21;99207.25;5074781;28;19912;-76
2023/11/02 01:21:02;;;;;;;;;;;;;;;17.26;50.17;99202.25;5075030;28;19996;-77
2023/11/02 01:23:28;;;;;;;;;;;;;;;17.23;50.26;99200.03;5075197;28;19916;-78
2023/11/02 01:25:54;;;;;;;;;;;;;;;17.24;50.51;99201.66;5074894;28;19916;-76
2023/11/02 01:28:20;;;;;;;;;;;;;;;17.24;50.39;99209.66;5074847;28;19913;-78
2023/11/02 01:30:49;;;;;;;;;;;;;;;17.21;50.31;99209.31;5075064;28;19969;-77
2023/11/02 01:33:32;;;;;;;;;;;;;;;17.15;50.42;99208.38;5074789;28;19913;-77
2023/11/02 01:35:58;;;;;;;;;;;;;;;17.07;50.53;99206.81;5075339;28;20316;-76
2023/11/02 01:38:23;;;;;;;;;;;;;;;17.08;50.52;99203.13;5074743;28;19912;-76
2023/11/02 01:40:49;;;;;;;;;;;;;;;17.05;50.29;99208.09;5075046;28;19908;-77
2023/11/02 01:43:18;;;;;;;;;;;;;;;17.02;50.65;99205.88;5074564;28;19995;-76
2023/11/02 01:45:46;;;;;;;;;;;;;;;16.99;50.76;99198.34;5056829;28;19917;-76
2023/11/02 01:48:18;;;;;;;;;;;;;;;16.95;50.65;99191.84;5074601;28;19912;-76
2023/11/02 01:50:52;;;;;;;;;;;;;;;16.92;50.79;99185.09;5056570;28;20377;-76
2023/11/02 01:53:27;;;;;;;;;;;;;;;16.89;50.75;99193.56;5056472;28;19912;-77
2023/11/02 01:56:04;;;;;;;;;;;;;;;16.87;50.90;99194.81;5074148;28;20448;-76
2023/11/02 02:01:40;;;;;;;;;;;;;;;16.84;50.48;99190.75;5074313;28;19919;-76
2023/11/02 02:04:17;;;;;;;;;;;;;;;16.81;50.82;99186.69;5077812;28;19970;-76
2023/11/02 02:07:01;;;;;;;;;;;;;;;16.77;51.11;99177.53;5081897;28;19916;-78
2023/11/02 02:09:27;;;;;;;;;;;;;;;16.76;50.83;99177.75;5082995;28;19913;-78
2023/11/02 02:11:52;;;;;;;;;;;;;;;16.75;51.03;99174.25;5074252;28;19920;-76
2023/11/02 02:14:36;;;;;;;;;;;;;;;16.77;50.94;99174.84;5074030;28;19912;-77
2023/11/02 02:17:22;;;;;;;;;;;;;;;16.79;50.80;99171.97;5074144;28;19961;-77
2023/11/02 02:19:50;;;;;;;;;;;;;;;16.78;51.09;99165.00;5055225;28;19969;-77
2023/11/02 02:22:24;;;;;;;;;;;;;;;16.80;51.03;99154.91;5055998;28;19913;-76
2023/11/02 02:24:57;;;;;;;;;;;;;;;16.82;51.07;99147.50;5055853;28;20006;-77
2023/11/02 02:27:28;;;;;;;;;;;;;;;16.82;50.98;99144.84;5073746;28;19923;-76
2023/11/02 02:30:09;;;;;;;;;;;;;;;16.79;50.87;99150.63;5073831;28;19912;-76
2023/11/02 02:32:40;;;;;;;;;;;;;;;16.75;50.90;99149.47;5073759;28;19920;-76
2023/11/02 02:35:05;;;;;;;;;;;;;;;16.73;50.88;99140.88;5073714;28;19913;-76
2023/11/02 02:37:30;;;;;;;;;;;;;;;16.74;51.00;99147.84;5073585;28;19913;-77
2023/11/02 02:40:06;;;;;;;;;;;;;;;16.75;51.07;99146.78;5055723;28;19913;-77
2023/11/02 02:42:36;;;;;;;;;;;;;;;16.73;51.20;99138.22;5073444;28;19991;-77
2023/11/02 02:45:06;;;;;;;;;;;;;;;16.69;51.08;99127.19;5055427;28;20446;-77
2023/11/02 02:47:33;;;;;;;;;;;;;;;16.68;51.21;99130.09;5055427;28;19955;-76
2023/11/02 02:50:01;;;;;;;;;;;;;;;16.64;51.26;99132.38;5073284;28;19939;-77
2023/11/02 02:52:28;;;;;;;;;;;;;;;16.58;51.12;99127.13;5055359;28;20314;-77
2023/11/02 02:54:55;;;;;;;;;;;;;;;16.56;51.71;99123.88;5073032;28;19912;-76
2023/11/02 02:57:23;;;;;;;;;;;;;;;16.51;51.81;99124.56;5073011;28;20374;-76
2023/11/02 02:59:51;;;;;;;;;;;;;;;16.50;52.05;99112.28;5055030;28;20308;-77
2023/11/02 03:02:19;;;;;;;;;;;;;;;16.55;51.85;99103.59;5054831;28;19912;-77
2023/11/02 03:04:45;;;;;;;;;;;;;;;16.53;51.46;99099.31;5072972;28;20313;-76
2023/11/02 03:07:14;;;;;;;;;;;;;;;16.55;51.80;99095.59;5054792;28;19913;-77
2023/11/02 03:09:40;;;;;;;;;;;;;;;16.57;51.73;99110.31;5072913;28;19912;-76
2023/11/02 03:12:07;;;;;;;;;;;;;;;16.60;51.59;99101.06;5072531;28;19913;-76
2023/11/02 03:14:33;;;;;;;;;;;;;;;16.61;51.43;99098.16;5054822;28;19919;-76
2023/11/02 03:17:04;;;;;;;;;;;;;;;16.65;51.51;99095.84;5054818;28;19990;-77
2023/11/02 03:19:49;;;;;;;;;;;;;;;16.69;51.45;99091.72;5072817;28;19912;-77
2023/11/02 03:22:16;;;;;;;;;;;;;;;16.70;51.45;99094.16;5054729;28;19931;-76
2023/11/02 03:24:46;;;;;;;;;;;;;;;16.73;51.70;99099.03;5072462;28;19912;-76
2023/11/02 03:27:17;;;;;;;;;;;;;;;16.71;51.51;99086.97;5072497;28;20054;-76
2023/11/02 03:30:00;;;;;;;;;;;;;;;16.73;51.78;99088.38;5072427;28;19919;-76
2023/11/02 03:32:29;;;;;;;;;;;;;;;16.68;52.11;99080.25;5072486;28;20370;-76
2023/11/02 03:34:55;;;;;;;;;;;;;;;16.67;51.49;99056.50;5072313;28;20125;-76
2023/11/02 03:37:28;;;;;;;;;;;;;;;16.67;51.80;99029.84;5072259;28;19913;-76
2023/11/02 03:40:05;;;;;;;;;;;;;;;16.64;51.53;99035.59;5072270;28;19946;-76
2023/11/02 03:42:40;;;;;;;;;;;;;;;16.62;51.49;99033.16;5072389;28;19913;-76
2023/11/02 03:45:05;;;;;;;;;;;;;;;16.58;51.79;99036.50;5072161;28;19916;-78
2023/11/02 03:47:49;;;;;;;;;;;;;;;16.55;52.17;99026.31;5072126;28;20371;-76
2023/11/02 03:50:32;;;;;;;;;;;;;;;16.51;52.21;99020.63;5072129;28;20390;-76
2023/11/02 03:53:01;;;;;;;;;;;;;;;16.55;52.07;99027.13;5072510;28;20384;-78
2023/11/02 03:55:29;;;;;;;;;;;;;;;16.59;51.98;99030.13;5072088;28;19916;-77
2023/11/02 03:58:09;;;;;;;;;;;;;;;16.58;52.06;99032.00;5072124;28;20488;-77
2023/11/02 04:00:38;;;;;;;;;;;;;;;16.54;51.70;99038.81;5072010;28;20058;-76
2023/11/02 04:03:09;;;;;;;;;;;;;;;16.44;52.14;99051.88;5071852;28;19924;-76
2023/11/02 04:05:42;;;;;;;;;;;;;;;16.38;52.19;99040.28;5071927;28;20434;-77
2023/11/02 04:08:08;;;;;;;;;;;;;;;16.31;51.97;99034.22;5071955;28;20021;-76
2023/11/02 04:10:35;;;;;;;;;;;;;;;16.23;52.46;99026.56;5071949;28;19919;-76
2023/11/02 04:13:00;;;;;;;;;;;;;;;16.16;52.19;99037.28;5071787;28;19917;-77
2023/11/02 04:15:25;;;;;;;;;;;;;;;16.11;52.36;99041.69;5071910;28;20013;-76
2023/11/02 04:17:51;;;;;;;;;;;;;;;16.09;52.53;99049.88;5071898;28;19956;-76
2023/11/02 04:20:16;;;;;;;;;;;;;;;16.03;52.63;99057.97;5071786;28;19920;-76
2023/11/02 04:22:41;;;;;;;;;;;;;;;15.98;52.64;99055.16;5071907;28;19909;-76
2023/11/02 04:25:07;;;;;;;;;;;;;;;15.99;52.23;99057.59;5071728;28;19951;-76
2023/11/02 04:27:33;;;;;;;;;;;;;;;15.98;52.57;99055.97;5053632;28;19920;-76
2023/11/02 04:29:58;;;;;;;;;;;;;;;15.96;52.59;99049.25;5071097;28;19912;-76
2023/11/02 04:32:24;;;;;;;;;;;;;;;15.95;52.46;99052.97;5071816;28;19999;-76
2023/11/02 04:34:49;;;;;;;;;;;;;;;15.91;52.31;99060.56;5071703;28;19995;-76
2023/11/02 04:37:15;;;;;;;;;;;;;;;15.90;52.33;99066.94;5071529;28;19916;-76
2023/11/02 04:39:43;;;;;;;;;;;;;;;15.93;52.33;99068.34;5071434;28;19913;-76
2023/11/02 04:42:09;;;;;;;;;;;;;;;15.93;52.17;99061.16;5071657;28;19935;-76
2023/11/02 04:44:34;;;;;;;;;;;;;;;15.93;52.09;99068.34;5071514;28;20436;-76
2023/11/02 04:46:59;;;;;;;;;;;;;;;15.91;52.31;99057.91;5071238;28;20413;-76
2023/11/02 04:49:25;;;;;;;;;;;;;;;15.87;52.39;99070.88;5071278;28;19912;-76
2023/11/02 04:52:02;;;;;;;;;;;;;;;15.86;52.27;99074.56;5071455;28;19919;-76
2023/11/02 04:54:27;;;;;;;;;;;;;;;15.88;52.56;99082.31;5071261;28;20423;-76
2023/11/02 04:56:53;;;;;;;;;;;;;;;15.86;52.30;99079.06;5071347;28;19991;-76
2023/11/02 04:59:19;;;;;;;;;;;;;;;15.88;52.08;99080.47;5071429;28;19913;-76
2023/11/02 05:01:44;;;;;;;;;;;;;;;15.85;52.47;99091.56;5071471;28;19916;-76
2023/11/02 05:04:09;;;;;;;;;;;;;;;15.88;52.27;99083.13;5071254;28;20469;-76
2023/11/02 05:06:34;;;;;;;;;;;;;;;15.94;52.62;99099.25;5071183;28;19916;-76
2023/11/02 05:09:02;;;;;;;;;;;;;;;15.96;52.74;99089.19;5071424;28;19912;-76
2023/11/02 05:11:27;;;;;;;;;;;;;;;15.93;52.39;99081.66;5053279;28;19912;-76
2023/11/02 05:13:52;;;;;;;;;;;;;;;15.93;52.57;99079.81;5071182;28;20308;-74
2023/11/02 05:16:18;;;;;;;;;;;;;;;15.99;52.40;99084.25;5071220;28;19970;-77
2023/11/02 05:18:44;;;;;;;;;;;;;;;16.01;52.51;99097.31;5071186;28;19919;-76
2023/11/02 05:21:09;;;;;;;;;;;;;;;16.04;52.99;99092.38;5071579;28;19913;-76
2023/11/02 05:23:34;;;;;;;;;;;;;;;16.09;52.66;99092.50;5053333;28;19920;-77
2023/11/02 05:26:01;;;;;;;;;;;;;;;16.12;52.31;99093.91;5071395;28;19999;-76
2023/11/02 05:28:26;;;;;;;;;;;;;;;16.05;52.62;99095.84;5071418;28;20308;-77
2023/11/02 05:30:52;;;;;;;;;;;;;;;16.07;52.52;99101.75;5071091;28;20003;-76
2023/11/02 05:33:17;;;;;;;;;;;;;;;16.10;52.58;99103.97;5071617;28;19913;-77
2023/11/02 05:35:42;;;;;;;;;;;;;;;16.13;52.45;99108.84;5072418;28;19912;-76
2023/11/02 05:38:08;;;;;;;;;;;;;;;16.12;52.67;99117.88;5073189;28;19909;-76
2023/11/02 05:40:33;;;;;;;;;;;;;;;16.04;52.86;99121.66;5073459;28;19920;-78
2023/11/02 05:42:58;;;;;;;;;;;;;;;16.00;52.58;99119.66;5076958;28;19913;-77
2023/11/02 05:45:23;;;;;;;;;;;;;;;16.05;52.89;99123.28;5075496;28;19922;-76
2023/11/02 05:47:49;;;;;;;;;;;;;;;16.10;53.09;99122.63;5079570;28;20395;-77
2023/11/02 05:50:14;;;;;;;;;;;;;;;16.14;52.98;99123.78;5090964;28;19923;-74
2023/11/02 05:52:39;;;;;;;;;;;;;;;16.11;53.01;99127.72;5092743;28;19989;-77
2023/11/02 05:55:05;;;;;;;;;;;;;;;16.16;52.66;99121.72;5094424;28;19912;-76
2023/11/02 05:57:30;;;;;;;;;;;;;;;16.25;52.66;99119.56;5094418;28;19912;-77
2023/11/02 05:59:57;;;;;;;;;;;;;;;16.33;52.66;99109.41;5094215;28;19958;-76
2023/11/02 06:02:22;;;;;;;;;;;;;;;16.40;52.49;99109.34;5088424;28;19920;-77
2023/11/02 06:04:47;;;;;;;;;;;;;;;16.47;52.22;99110.88;5062171;28;19976;-77
2023/11/02 06:07:14;;;;;;;;;;;;;;;16.56;52.37;99102.56;5094268;28;20381;-77
2023/11/02 06:09:41;;;;;;;;;;;;;;;16.64;52.48;99102.22;5094018;28;19918;-77
2023/11/02 06:12:07;;;;;;;;;;;;;;;16.66;52.31;99092.19;5077689;28;19996;-77
2023/11/02 06:14:32;;;;;;;;;;;;;;;16.66;52.26;99101.00;5074089;28;19988;-74
2023/11/02 06:16:57;;;;;;;;;;;;;;;16.67;52.75;99105.28;5073971;28;19974;-77
2023/11/02 06:19:23;;;;;;;;;;;;;;;16.69;52.66;99108.53;5077520;28;19919;-76
2023/11/02 06:21:48;;;;;;;;;;;;;;;16.76;52.33;99117.25;5088844;28;20286;-77
2023/11/02 06:24:13;;;;;;;;;;;;;;;16.80;52.75;99106.94;5086799;28;19912;-77
2023/11/02 06:26:39;;;;;;;;;;;;;;;16.83;52.47;99106.47;5057887;28;19921;-78
2023/11/02 06:29:04;;;;;;;;;;;;;;;16.87;52.44;99114.81;5079097;28;20359;-77
2023/11/02 06:31:29;;;;;;;;;;;;;;;16.88;52.98;99113.78;5072684;28;19916;-73
2023/11/02 06:33:55;;;;;;;;;;;;;;;16.93;52.75;99114.72;5073940;28;20394;-75
2023/11/02 06:36:20;;;;;;;;;;;;;;;17.03;52.60;99109.63;5087878;28;19916;-75
2023/11/02 06:38:45;;;;;;;;;;;;;;;16.99;52.85;99084.47;5082417;28;19919;-77
2023/11/02 06:41:10;;;;;;;;;;;;;;;17.22;52.55;99104.22;5079852;28;19916;-75
2023/11/02 06:43:40;;;;;;;;;;;;;;;17.27;52.47;99093.66;5077438;28;19912;-74
2023/11/02 06:46:06;;;;;;;;;;;;;;;17.33;52.61;99093.56;5093379;28;19927;-74
2023/11/02 06:48:32;;;;;;;;;;;;;;;17.36;53.19;99085.06;5093672;28;20305;-74
2023/11/02 06:50:57;;;;;;;;;;;;;;;17.34;54.09;99086.34;5075117;28;20320;-75
2023/11/02 06:53:22;;;;;;;;;;;;;;;17.36;54.44;99094.94;5081587;28;19916;-75
2023/11/02 06:55:48;;;;;;;;;;;;;;;17.29;54.05;99084.38;5072889;28;19927;-76
2023/11/02 06:58:13;;;;;;;;;;;;;;;17.29;54.46;99092.41;5073126;28;19912;-74
2023/11/02 07:00:39;;;;;;;;;;;;;;;17.29;54.23;99086.25;5077352;28;19916;-76
2023/11/02 07:03:04;;;;;;;;;;;;;;;17.27;54.47;99080.31;5093259;28;19926;-75
2023/11/02 07:05:29;;;;;;;;;;;;;;;17.27;56.00;99083.81;5091844;28;19916;-75
2023/11/02 07:07:55;;;;;;;;;;;;;;;17.26;55.39;99092.03;5092913;28;19970;-76
2023/11/02 07:10:21;;;;;;;;;;;;;;;17.26;55.32;99084.03;5093344;28;19924;-75
2023/11/02 07:12:46;;;;;;;;;;;;;;;17.28;55.88;99073.94;5092465;28;19965;-75
2023/11/02 07:15:11;;;;;;;;;;;;;;;17.30;55.76;99085.19;5088071;28;20383;-75
2023/11/02 07:17:37;;;;;;;;;;;;;;;17.33;55.81;99090.06;5091424;28;19920;-75
2023/11/02 07:20:03;;;;;;;;;;;;;;;17.36;56.34;99086.94;5081539;28;19955;-75
2023/11/02 07:22:28;;;;;;;;;;;;;;;17.40;55.90;99075.56;5088811;28;20413;-76
2023/11/02 07:24:54;;;;;;;;;;;;;;;17.42;55.98;99080.66;5072890;28;19916;-76
2023/11/02 07:27:19;;;;;;;;;;;;;;;17.44;55.71;99084.72;5084620;28;19916;-76
2023/11/02 07:29:44;;;;;;;;;;;;;;;17.49;55.73;99073.34;5092926;28;19935;-76
2023/11/02 07:32:10;;;;;;;;;;;;;;;17.56;55.24;99082.03;5092209;28;19912;-75
2023/11/02 07:34:35;;;;;;;;;;;;;;;17.60;55.52;99090.41;5091716;28;19908;-76
2023/11/02 07:37:00;;;;;;;;;;;;;;;17.63;54.68;99087.25;5081090;28;20045;-75
2023/11/02 07:39:27;;;;;;;;;;;;;;;17.64;55.11;99094.22;5078950;28;19917;-75
2023/11/02 07:41:53;;;;;;;;;;;;;;;17.67;55.57;99081.25;5088637;28;19941;-76
2023/11/02 07:44:18;;;;;;;;;;;;;;;17.70;55.43;99078.09;5096579;28;19912;-77
2023/11/02 07:46:43;;;;;;;;;;;;;;;17.69;55.15;99084.50;5061113;28;19934;-77
2023/11/02 07:49:09;;;;;;;;;;;;;;;17.72;54.96;99083.19;5078423;28;19916;-77
2023/11/02 07:51:34;;;;;;;;;;;;;;;17.77;55.56;99072.63;5081570;28;19920;-77
2023/11/02 07:54:01;;;;;;;;;;;;;;;17.82;54.80;99071.91;5092262;28;20306;-76
2023/11/02 07:56:26;;;;;;;;;;;;;;;17.89;54.94;99072.63;5091473;28;19916;-77
2023/11/02 07:58:51;;;;;;;;;;;;;;;17.97;55.14;99073.06;5085314;28;19916;-76
2023/11/02 08:01:18;;;;;;;;;;;;;;;18.02;55.04;99067.00;5091502;28;20006;-77
2023/11/02 08:03:43;;;;;;;;;;;;;;;18.00;54.55;99056.56;5080637;28;19920;-75
2023/11/02 08:06:09;;;;;;;;;;;;;;;17.96;54.23;99066.09;5078431;28;19927;-76
2023/11/02 08:08:34;;;;;;;;;;;;;;;17.95;54.49;99074.34;5076683;28;19916;-76
2023/11/02 08:10:59;;;;;;;;;;;;;;;17.97;55.19;99075.72;5090552;28;19916;-77
2023/11/02 08:13:25;;;;;;;;;;;;;;;18.02;55.09;99075.03;5077461;28;19945;-76
2023/11/02 08:15:50;;;;;;;;;;;;;;;18.04;56.02;99073.72;5071565;28;20386;-75
2023/11/02 08:18:15;;;;;;;;;;;;;;;18.09;55.47;99073.03;5075289;28;19928;-76
2023/11/02 08:20:41;;;;;;;;;;;;;;;18.15;56.18;99072.06;5077421;28;20290;-76
2023/11/02 08:23:06;;;;;;;;;;;;;;;18.15;55.60;99071.25;5075321;28;20003;-77
2023/11/02 08:25:31;;;;;;;;;;;;;;;18.14;55.89;99073.13;5088612;28;19931;-77
2023/11/02 08:27:59;;;;;;;;;;;;;;;18.15;55.88;99065.91;5090755;28;20385;-76
2023/11/02 08:30:25;;;;;;;;;;;;;;;18.19;56.55;99075.88;5076897;28;20014;-76
2023/11/02 08:32:54;;;;;;;;;;;;;;;18.22;55.82;99077.28;5084348;28;19970;-76
2023/11/02 08:35:22;;;;;;;;;;;;;;;18.28;56.17;99079.78;5084249;28;19917;-77
2023/11/02 08:37:48;;;;;;;;;;;;;;;18.31;56.58;99084.66;5085301;28;19927;-76
2023/11/02 08:40:13;;;;;;;;;;;;;;;18.32;56.80;99077.47;5085121;28;20407;-77
2023/11/02 08:42:40;;;;;;;;;;;;;;;18.30;57.42;99083.03;5080134;28;19912;-77
2023/11/02 08:45:05;;;;;;;;;;;;;;;18.32;56.71;99077.47;5081653;28;20010;-76
2023/11/02 08:47:31;;;;;;;;;;;;;;;18.29;55.76;99078.75;5070763;28;19958;-77
2023/11/02 08:49:56;;;;;;;;;;;;;;;18.24;57.32;99078.66;5061823;28;19923;-76
2023/11/02 08:52:22;;;;;;;;;;;;;;;18.22;57.67;99080.75;5071252;28;19919;-78
2023/11/02 08:54:47;;;;;;;;;;;;;;;18.24;58.44;99080.50;5079721;28;19983;-77
2023/11/02 08:57:13;;;;;;;;;;;;;;;18.24;58.48;99077.84;5081499;28;20939;-77
2023/11/02 08:59:38;;;;;;;;;;;;;;;18.24;57.00;99078.66;5079460;28;19931;-77
2023/11/02 09:02:03;;;;;;;;;;;;;;;18.24;57.03;99080.50;5082002;28;19939;-76
2023/11/02 09:04:28;;;;;;;;;;;;;;;18.22;56.90;99075.41;5071571;28;20011;-76
2023/11/02 09:06:54;;;;;;;;;;;;;;;18.19;56.53;99065.19;5080496;28;19950;-74
2023/11/02 09:09:19;;;;;;;;;;;;;;;18.17;56.70;99063.81;5072290;28;19916;-74
2023/11/02 09:11:45;;;;;;;;;;;;;;;18.16;56.31;99056.84;5065913;28;20384;-74
2023/11/02 09:14:10;;;;;;;;;;;;;;;18.15;56.28;99049.88;5084801;28;19924;-75
2023/11/02 09:16:35;;;;;;;;;;;;;;;18.16;56.60;99044.31;5067072;28;19948;-76
2023/11/02 09:19:01;;;;;;;;;;;;;;;18.15;56.42;99048.03;5080432;28;19922;-74
2023/11/02 09:21:27;;;;;;;;;;;;;;;18.16;57.29;99038.94;5092978;28;19973;-74
2023/11/02 09:23:52;;;;;;;;;;;;;;;18.17;56.91;99029.88;5080559;28;20474;-73
2023/11/02 09:26:17;;;;;;;;;;;;;;;18.20;57.03;99029.41;5086779;28;19941;-76
2023/11/02 09:28:43;;;;;;;;;;;;;;;18.23;56.37;99022.78;5074593;28;19948;-76
2023/11/02 09:31:12;;;;;;;;;;;;;;;18.27;56.98;99019.38;5090815;28;19916;-76
2023/11/02 09:33:38;;;;;;;;;;;;;;;18.34;55.86;99011.22;5093271;28;19916;-76
2023/11/02 09:36:04;;;;;;;;;;;;;;;18.41;56.65;99007.34;5093695;28;19944;-77
2023/11/02 09:38:29;;;;;;;;;;;;;;;18.47;56.25;98988.69;5085424;28;20127;-76
2023/11/02 09:40:54;;;;;;;;;;;;;;;18.56;55.68;98995.25;5065239;28;19912;-76
2023/11/02 09:43:20;;;;;;;;;;;;;;;18.59;55.84;98987.59;5094764;28;19912;-75
2023/11/02 09:45:46;;;;;;;;;;;;;;;18.65;55.82;98972.47;5089111;28;20430;-76
2023/11/02 09:48:11;;;;;;;;;;;;;;;18.72;55.71;98970.44;5090403;28;19916;-76
2023/11/02 09:50:37;;;;;;;;;;;;;;;18.82;55.43;98954.53;5076621;28;20373;-77
2023/11/02 09:53:02;;;;;;;;;;;;;;;18.93;55.12;98958.97;5083171;28;19920;-74
2023/11/02 09:55:28;;;;;;;;;;;;;;;18.99;54.94;98963.34;5071780;28;20420;-75
2023/11/02 09:57:53;;;;;;;;;;;;;;;19.03;54.82;98961.78;5091175;28;20309;-74
2023/11/02 10:00:19;;;;;;;;;;;;;;;19.00;55.14;98959.63;5074620;28;19955;-75
2023/11/02 10:02:48;;;;;;;;;;;;;;;18.93;54.77;98960.84;5094447;28;19920;-75
2023/11/02 10:05:13;;;;;;;;;;;;;;;18.95;55.14;98956.06;5089482;28;20354;-74
2023/11/02 10:07:39;;;;;;;;;;;;;;;18.99;56.13;98954.50;5079750;28;20007;-77
2023/11/02 10:10:04;;;;;;;;;;;;;;;18.99;55.39;98951.84;5083951;28;20016;-76
2023/11/02 10:12:33;;;;;;;;;;;;;;;19.01;55.57;98939.81;5088317;28;20312;-76
2023/11/02 10:14:58;;;;;;;;;;;;;;;18.98;56.06;98932.28;5091904;28;19931;-76
2023/11/02 10:17:23;;;;;;;;;;;;;;;18.98;56.23;98929.63;5073602;28;19923;-76
2023/11/02 10:19:49;;;;;;;;;;;;;;;19.04;56.17;98923.28;5073206;28;19913;-74
2023/11/02 10:22:16;;;;;;;;;;;;;;;19.15;56.05;98908.16;5077257;28;19923;-74
2023/11/02 10:24:42;;;;;;;;;;;;;;;19.18;55.99;98907.66;5088770;28;19916;-77
2023/11/02 10:27:10;;;;;;;;;;;;;;;19.23;56.22;98910.41;5078787;28;19977;-74
2023/11/02 10:29:36;;;;;;;;;;;;;;;19.25;56.45;98915.50;5093913;28;19912;-76
2023/11/02 10:32:01;;;;;;;;;;;;;;;19.21;56.64;98914.38;5090944;28;20297;-76
2023/11/02 10:34:27;;;;;;;;;;;;;;;19.16;56.42;98908.97;5085816;28;20305;-77
2023/11/02 10:36:54;;;;;;;;;;;;;;;19.20;57.04;98905.53;5091456;28;19916;-76
2023/11/02 10:39:19;;;;;;;;;;;;;;;19.30;56.08;98899.50;5093150;28;19919;-76
2023/11/02 10:41:55;;;;;;;;;;;;;;;19.38;55.71;98899.09;5093685;28;19912;-75
2023/11/02 10:44:24;;;;;;;;;;;;;;;19.43;54.97;98895.66;5063934;28;20028;-78
2023/11/02 10:46:52;;;;;;;;;;;;;;;19.43;55.71;98893.78;5089267;28;19927;-78
2023/11/02 10:49:18;;;;;;;;;;;;;;;19.56;55.48;98890.75;5092794;28;19919;-78
2023/11/02 10:51:46;;;;;;;;;;;;;;;19.78;54.15;98893.38;5086050;28;20408;-78
2023/11/02 10:54:14;;;;;;;;;;;;;;;19.87;54.62;98888.38;5092286;28;20047;-77
2023/11/02 10:56:42;;;;;;;;;;;;;;;20.04;54.20;98870.28;5073909;28;20372;-76
2023/11/02 10:59:11;;;;;;;;;;;;;;;20.13;53.72;98868.78;5091748;28;19916;-77
2023/11/02 11:01:37;;;;;;;;;;;;;;;20.11;53.70;98867.41;5092308;28;19923;-76
2023/11/02 11:04:03;;;;;;;;;;;;;;;20.12;53.85;98858.31;5082936;28;19921;-76
2023/11/02 11:06:29;;;;;;;;;;;;;;;20.10;53.63;98855.09;5054580;28;20408;-77
2023/11/02 11:08:56;;;;;;;;;;;;;;;20.09;53.97;98850.78;5072854;28;19920;-74
2023/11/02 11:11:22;;;;;;;;;;;;;;;20.14;53.81;98848.16;5075915;28;19924;-74
2023/11/02 11:13:49;;;;;;;;;;;;;;;20.20;54.24;98842.56;5083132;28;19916;-77
2023/11/02 11:16:14;;;;;;;;;;;;;;;20.25;53.52;98836.44;5072660;28;19942;-76
2023/11/02 11:18:41;;;;;;;;;;;;;;;20.27;53.78;98839.66;5079168;28;19916;-77
2023/11/02 11:21:07;;;;;;;;;;;;;;;20.27;53.18;98837.78;5084603;28;20334;-77
2023/11/02 11:23:44;;;;;;;;;;;;;;;20.24;53.50;98840.97;5092805;28;19912;-76
2023/11/02 11:26:09;;;;;;;;;;;;;;;20.13;54.28;98833.94;5075908;28;19927;-76
2023/11/02 11:28:35;;;;;;;;;;;;;;;20.14;54.07;98840.91;5076241;28;19924;-76
2023/11/02 11:31:00;;;;;;;;;;;;;;;20.12;54.02;98837.69;5083164;28;19916;-78
2023/11/02 11:33:47;;;;;;;;;;;;;;;20.10;54.51;98831.78;5086484;28;19919;-77
2023/11/02 11:36:22;;;;;;;;;;;;;;;20.02;54.40;98834.91;5091103;28;19916;-76
2023/11/02 11:38:48;;;;;;;;;;;;;;;20.03;54.23;98838.38;5085750;28;20014;-76
2023/11/02 11:41:33;;;;;;;;;;;;;;;20.11;53.92;98829.91;5084294;28;19934;-76
2023/11/02 11:44:01;;;;;;;;;;;;;;;20.17;53.92;98835.03;5080319;28;19934;-77
2023/11/02 11:46:45;;;;;;;;;;;;;;;20.25;53.95;98823.84;5083713;28;19927;-77
2023/11/02 11:49:39;;;;;;;;;;;;;;;20.24;53.95;98826.78;5073220;28;19923;-76
2023/11/02 11:52:24;;;;;;;;;;;;;;;20.20;54.03;98826.47;5070124;28;19923;-76
2023/11/02 11:54:50;;;;;;;;;;;;;;;20.24;54.43;98827.59;5066570;28;20411;-77
2023/11/02 11:57:34;;;;;;;;;;;;;;;20.24;54.39;98826.78;5053567;28;19916;-77
2023/11/02 11:59:59;;;;;;;;;;;;;;;20.20;54.09;98826.47;5067673;28;19917;-76
2023/11/02 12:02:44;;;;;;;;;;;;;;;20.22;54.19;98828.91;5079527;28;19969;-75
2023/11/02 12:05:10;;;;;;;;;;;;;;;20.24;54.36;98824.91;5080055;28;20463;-77
2023/11/02 12:07:38;;;;;;;;;;;;;;;20.24;54.44;98830.25;5056590;28;20472;-78
2023/11/02 12:10:05;;;;;;;;;;;;;;;20.25;54.37;98825.72;5083993;28;19923;-76
2023/11/02 12:12:31;;;;;;;;;;;;;;;20.19;54.45;98818.69;5066060;28;20389;-76
2023/11/02 12:15:13;;;;;;;;;;;;;;;20.20;53.76;98820.31;5078988;28;19927;-76
2023/11/02 12:17:51;;;;;;;;;;;;;;;20.18;54.63;98822.44;5065955;28;19920;-76
2023/11/02 12:20:35;;;;;;;;;;;;;;;20.17;54.04;98824.31;5071785;28;20029;-75
2023/11/02 12:23:01;;;;;;;;;;;;;;;20.16;54.09;98828.06;5076106;28;19916;-75
2023/11/02 12:25:26;;;;;;;;;;;;;;;20.19;53.46;98824.06;5077101;28;20316;-77
2023/11/02 12:27:56;;;;;;;;;;;;;;;20.17;54.06;98826.19;5089307;28;19945;-76
2023/11/02 12:30:21;;;;;;;;;;;;;;;20.16;54.15;98821.91;5083138;28;19924;-75
2023/11/02 12:32:46;;;;;;;;;;;;;;;20.14;54.86;98818.66;5080939;28;19965;-75
2023/11/02 12:35:12;;;;;;;;;;;;;;;20.15;54.36;98813.03;5091043;28;20011;-75
2023/11/02 12:37:38;;;;;;;;;;;;;;;20.17;54.67;98818.16;5085292;28;20309;-76
2023/11/02 12:40:04;;;;;;;;;;;;;;;20.15;54.12;98815.72;5055294;28;19917;-76
2023/11/02 12:42:29;;;;;;;;;;;;;;;20.15;54.06;98821.09;5072886;28;19911;-76
2023/11/02 12:44:59;;;;;;;;;;;;;;;20.15;54.31;98817.59;5071878;28;19973;-76
2023/11/02 12:47:35;;;;;;;;;;;;;;;20.12;54.66;98821.59;5078193;28;20385;-76
2023/11/02 12:50:01;;;;;;;;;;;;;;;20.09;54.85;98819.44;5089718;28;19958;-76
2023/11/02 12:52:39;;;;;;;;;;;;;;;20.05;54.42;98817.50;5094249;28;19916;-77
2023/11/02 12:55:04;;;;;;;;;;;;;;;20.02;55.19;98821.50;5068682;28;19974;-77